Map

Track Data

SID SEASON NUMBER BASIN SUBBASIN NAME ISO_TIME NATURE LAT LON WMO_WIND WMO_PRES WMO_AGENCY TRACK_TYPE DIST2LAND LANDFALL IFLAG USA_AGENCY USA_ATCF_ID USA_LAT USA_LON USA_RECORD USA_STATUS USA_WIND USA_PRES USA_SSHS USA_R34_NE USA_R34_SE USA_R34_SW USA_R34_NW USA_R50_NE USA_R50_SE USA_R50_SW USA_R50_NW USA_R64_NE USA_R64_SE USA_R64_SW USA_R64_NW USA_POCI USA_ROCI USA_RMW USA_EYE TOKYO_LAT TOKYO_LON TOKYO_GRADE TOKYO_WIND TOKYO_PRES TOKYO_R50_DIR TOKYO_R50_LONG TOKYO_R50_SHORT TOKYO_R30_DIR TOKYO_R30_LONG TOKYO_R30_SHORT TOKYO_LAND CMA_LAT CMA_LON CMA_CAT CMA_WIND CMA_PRES HKO_LAT HKO_LON HKO_CAT HKO_WIND HKO_PRES NEWDELHI_LAT NEWDELHI_LON NEWDELHI_GRADE NEWDELHI_WIND NEWDELHI_PRES NEWDELHI_CI NEWDELHI_DP NEWDELHI_POCI REUNION_LAT REUNION_LON REUNION_TYPE REUNION_WIND REUNION_PRES REUNION_TNUM REUNION_CI REUNION_RMW REUNION_R34_NE REUNION_R34_SE REUNION_R34_SW REUNION_R34_NW REUNION_R50_NE REUNION_R50_SE REUNION_R50_SW REUNION_R50_NW REUNION_R64_NE REUNION_R64_SE REUNION_R64_SW REUNION_R64_NW BOM_LAT BOM_LON BOM_TYPE BOM_WIND BOM_PRES BOM_TNUM BOM_CI BOM_RMW BOM_R34_NE BOM_R34_SE BOM_R34_SW BOM_R34_NW BOM_R50_NE BOM_R50_SE BOM_R50_SW BOM_R50_NW BOM_R64_NE BOM_R64_SE BOM_R64_SW BOM_R64_NW BOM_ROCI BOM_POCI BOM_EYE BOM_POS_METHOD BOM_PRES_METHOD NADI_LAT NADI_LON NADI_CAT NADI_WIND NADI_PRES WELLINGTON_LAT WELLINGTON_LON WELLINGTON_WIND WELLINGTON_PRES DS824_LAT DS824_LON DS824_STAGE DS824_WIND DS824_PRES TD9636_LAT TD9636_LON TD9636_STAGE TD9636_WIND TD9636_PRES TD9635_LAT TD9635_LON TD9635_WIND TD9635_PRES TD9635_ROCI NEUMANN_LAT NEUMANN_LON NEUMANN_CLASS NEUMANN_WIND NEUMANN_PRES MLC_LAT MLC_LON MLC_CLASS MLC_WIND MLC_PRES USA_GUST BOM_GUST BOM_GUST_PER REUNION_GUST REUNION_GUST_PER USA_SEAHGT USA_SEARAD_NE USA_SEARAD_SE USA_SEARAD_SW USA_SEARAD_NW STORM_SPEED STORM_DIR
1924276N16125 1924 40 WP MM NOT_NAMED 1924-10-02 10:00:00 NR 16.4000 125.200 main 285 285 __________O___ -1 16.4000 125.200 4 1 261
1924276N16125 1924 40 WP MM NOT_NAMED 1924-10-02 12:00:00 NR 16.3940 125.159 main 285 282 __________P___ -1 16.3940 125.159 4 1 266
1924276N16125 1924 40 WP MM NOT_NAMED 1924-10-02 15:00:00 NR 16.3935 125.088 main 282 272 __________P___ -1 16.3935 125.088 4 2 278
1924276N16125 1924 40 WP MM NOT_NAMED 1924-10-02 18:00:00 NR 16.4149 124.992 main 272 259 __________P___ -1 16.4149 124.992 4 2 289
1924276N16125 1924 40 WP MM NOT_NAMED 1924-10-02 21:00:00 NR 16.4712 124.857 main 259 249 __________P___ -1 16.4712 124.857 4 3 294
1924276N16125 1924 40 WP MM NOT_NAMED 1924-10-02 22:00:00 NR 16.5000 124.800 main 249 236 __________O___ -1 16.5000 124.800 4 4 299
1924276N16125 1924 40 WP MM NOT_NAMED 1924-10-03 00:00:00 NR 16.5739 124.667 main 236 203 __________P___ -1 16.5739 124.667 4 5 301
1924276N16125 1924 40 WP MM NOT_NAMED 1924-10-03 03:00:00 NR 16.7164 124.417 main 203 170 __________P___ -1 16.7164 124.417 4 6 300
1924276N16125 1924 40 WP MM NOT_NAMED 1924-10-03 06:00:00 NR 16.8803 124.107 main 170 127 __________P___ -1 16.8803 124.107 4 7 297
1924276N16125 1924 40 WP MM NOT_NAMED 1924-10-03 09:00:00 NR 17.0470 123.737 main 127 117 __________P___ -1 17.0470 123.737 4 8 294
1924276N16125 1924 40 WP MM NOT_NAMED 1924-10-03 10:00:00 NR 17.1000 123.600 main 117 87 __________O___ -1 17.1000 123.600 4 8 292
1924276N16125 1924 40 WP MM NOT_NAMED 1924-10-03 12:00:00 NR 17.1965 123.341 main 87 53 __________P___ -1 17.1965 123.341 4 8 289
1924276N16125 1924 40 WP MM NOT_NAMED 1924-10-03 15:00:00 NR 17.3351 122.903 main 53 15 __________P___ -1 17.3351 122.903 4 9 286
1924276N16125 1924 40 WP MM NOT_NAMED 1924-10-03 18:00:00 NR 17.4612 122.397 main 22 0 __________P___ -1 17.4612 122.397 4 11 283
1924276N16125 1924 40 WP MM NOT_NAMED 1924-10-03 21:00:00 NR 17.5691 121.813 main 0 0 __________P___ -1 17.5691 121.813 4 12 280
1924276N16125 1924 40 WP MM NOT_NAMED 1924-10-03 22:00:00 NR 17.6000 121.600 main 0 0 __________O___ -1 17.6000 121.600 4 13 277
1924276N16125 1924 40 WP MM NOT_NAMED 1924-10-04 00:00:00 NR 17.6457 121.140 main 0 0 __________P___ -1 17.6457 121.140 4 14 275
1924276N16125 1924 40 WP MM NOT_NAMED 1924-10-04 03:00:00 NR 17.6948 120.382 main 0 10 __________P___ -1 17.6948 120.382 4 15 273
1924276N16125 1924 40 WP MM NOT_NAMED 1924-10-04 06:00:00 NR 17.7345 119.576 main 75 85 __________P___ -1 17.7345 119.576 4 15 273
1924276N16125 1924 40 WP MM NOT_NAMED 1924-10-04 09:00:00 NR 17.7804 118.765 main 160 170 __________P___ -1 17.7804 118.765 4 15 274
1924276N16125 1924 40 WP MM NOT_NAMED 1924-10-04 10:00:00 NR 17.8000 118.500 main 192 192 __________O___ -1 17.8000 118.500 4 15 276
1924276N16125 1924 40 WP MM NOT_NAMED 1924-10-04 12:00:00 NR 17.8603 117.979 main 245 256 __________P___ -1 17.8603 117.979 4 15 278
1924276N16125 1924 40 WP MM NOT_NAMED 1924-10-04 15:00:00 NR 17.9639 117.210 main 331 331 __________P___ -1 17.9639 117.210 4 14 278
1924276N16125 1924 40 WP MM NOT_NAMED 1924-10-04 18:00:00 NR 18.0717 116.477 main 404 413 __________P___ -1 18.0717 116.477 4 14 279
1924276N16125 1924 40 WP MM NOT_NAMED 1924-10-04 21:00:00 NR 18.1710 115.806 main 475 475 __________P___ -1 18.1710 115.806 4 13 279
1924276N16125 1924 40 WP MM NOT_NAMED 1924-10-04 22:00:00 NR 18.2000 115.600 main 478 470 __________O___ -1 18.2000 115.600 4 10 278
1924276N16125 1924 40 WP MM NOT_NAMED 1924-10-05 00:00:00 NR 18.2429 115.263 main 470 425 __________P___ -1 18.2429 115.263 4 9 277
1924276N16125 1924 40 WP MM NOT_NAMED 1924-10-05 03:00:00 NR 18.2957 114.820 main 425 386 __________P___ -1 18.2957 114.820 4 8 277
1924276N16125 1924 40 WP MM NOT_NAMED 1924-10-05 06:00:00 NR 18.3409 114.389 main 386 333 __________P___ -1 18.3409 114.389 4 9 276
1924276N16125 1924 40 WP MM NOT_NAMED 1924-10-05 09:00:00 NR 18.3847 113.893 main 333 314 __________P___ -1 18.3847 113.893 4 10 275
1924276N16125 1924 40 WP MM NOT_NAMED 1924-10-05 10:00:00 NR 18.4000 113.700 main 314 267 __________O___ -1 18.4000 113.700 4 13 274
1924276N16125 1924 40 WP MM NOT_NAMED 1924-10-05 12:00:00 NR 18.4270 113.196 main 267 191 __________P___ -1 18.4270 113.196 4 15 273
1924276N16125 1924 40 WP MM NOT_NAMED 1924-10-05 15:00:00 NR 18.4665 112.350 main 191 110 __________P___ -1 18.4665 112.350 4 16 273
1924276N16125 1924 40 WP MM NOT_NAMED 1924-10-05 18:00:00 NR 18.5123 111.473 main 110 23 __________P___ -1 18.5123 111.473 4 16 274
1924276N16125 1924 40 WP MM NOT_NAMED 1924-10-05 21:00:00 NR 18.5740 110.649 main 23 11 __________P___ -1 18.5740 110.649 4 15 275
1924276N16125 1924 40 WP MM NOT_NAMED 1924-10-05 22:00:00 NR 18.6000 110.400 main 11 0 __________O___ -1 18.6000 110.400 4 13 279
1924276N16125 1924 40 WP MM NOT_NAMED 1924-10-06 00:00:00 NR 18.6673 109.995 main 0 0 __________P___ -1 18.6673 109.995 4 11 282
1924276N16125 1924 40 WP MM NOT_NAMED 1924-10-06 03:00:00 NR 18.7885 109.470 main 0 0 __________P___ -1 18.7885 109.470 4 10 285
1924276N16125 1924 40 WP MM NOT_NAMED 1924-10-06 06:00:00 NR 18.9228 109.004 main 0 0 __________P___ -1 18.9228 109.004 4 9 287
1924276N16125 1924 40 WP MM NOT_NAMED 1924-10-06 09:00:00 NR 19.0574 108.554 main 10 21 __________P___ -1 19.0574 108.554 4 9 287
1924276N16125 1924 40 WP MM NOT_NAMED 1924-10-06 10:00:00 NR 19.1000 108.400 main 30 30 __________O___ -1 19.1000 108.400 4 9 285
1924276N16125 1924 40 WP MM NOT_NAMED 1924-10-06 12:00:00 NR 19.1796 108.079 main 53 53 __________P___ -1 19.1796 108.079 4 10 283
1924276N16125 1924 40 WP MM NOT_NAMED 1924-10-06 15:00:00 NR 19.2868 107.569 main 104 103 __________P___ -1 19.2868 107.569 4 10 282
1924276N16125 1924 40 WP MM NOT_NAMED 1924-10-06 18:00:00 NR 19.3827 107.034 main 103 64 __________P___ -1 19.3827 107.034 4 10 280
1924276N16125 1924 40 WP MM NOT_NAMED 1924-10-06 21:00:00 NR 19.4713 106.485 main 64 52 __________P___ -1 19.4713 106.485 4 11 280
1924276N16125 1924 40 WP MM NOT_NAMED 1924-10-06 22:00:00 NR 19.5000 106.300 main 52 __________O___ -1 19.5000 106.300 4 11 279

Digital Typhoon Data and Search

About IBTrACS Database

This database is a web-friendly format of International Best Track Archive for Climate Stewardship (IBTrACS), a global best track data archive curated by NOAA dating back to 1842.

Updated: 2021-12-03